This is the latest recevied weather packets stored in our database for station/object IW1CGW-13. If no packets are shown the sender has not sent any weather packets the latest 10 day(s).
| Time | Temp. | Humidity | Pressure | Rain* | Wind** | Luminosity | Snow |
|---|---|---|---|---|---|---|---|
| 1777197589 | 22.22° C | 55% | 1017.7 hPa | - | - | - | - |
| 1777196968 | 21.67° C | 55% | 1017.6 hPa | - | - | - | - |
| 1777195725 | 22.22° C | 54% | 1017.6 hPa | - | - | - | - |
| 1777195104 | 22.22° C | 55% | 1017.7 hPa | - | - | - | - |
| 1777194484 | 21.67° C | 54% | 1017.6 hPa | - | - | - | - |
| 1777193242 | 20.56° C | 56% | 1017.5 hPa | - | - | - | - |
| 1777192613 | 18.89° C | 58% | 1017.4 hPa | - | - | - | - |
| 1777191992 | 18.33° C | 58% | 1017.4 hPa | - | - | - | - |
| 1777190750 | 21.11° C | 56% | 1017.2 hPa | - | - | - | - |
| 1777190129 | 20.56° C | 56% | 1017.1 hPa | - | - | - | - |
| 1777189509 | 18.33° C | 59% | 1017.1 hPa | - | - | - | - |
| 1777187646 | 15° C | 60% | 1016.9 hPa | - | - | - | - |
| 1777187020 | 14.44° C | 60% | 1016.9 hPa | - | - | - | - |
| 1777186399 | 14.44° C | 60% | 1016.9 hPa | - | - | - | - |
| 1777185778 | 14.44° C | 60% | 1016.8 hPa | - | - | - | - |
| 1777185154 | 13.89° C | 60% | 1016.7 hPa | - | - | - | - |
| 1777184533 | 13.89° C | 60% | 1016.5 hPa | - | - | - | - |
| 1777183910 | 13.33° C | 60% | 1016.5 hPa | - | - | - | - |
| 1777183282 | 13.33° C | 60% | 1016.4 hPa | - | - | - | - |
| 1777182662 | 12.78° C | 60% | 1016.4 hPa | - | - | - | - |
| 1777182041 | 12.22° C | 59% | 1016.3 hPa | - | - | - | - |
| 1777181420 | 12.22° C | 59% | 1016.3 hPa | - | - | - | - |
| 1777180799 | 12.78° C | 59% | 1016.1 hPa | - | - | - | - |
| 1777180178 | 12.22° C | 59% | 1015.9 hPa | - | - | - | - |
| 1777179557 | 12.22° C | 59% | 1015.8 hPa | - | - | - | - |
* Rain since midnight (hover to see other rain measurements)
** Current wind speed in m/s (hover to see current wind gust speed)